Weather at Chiang Mai International Airport

Public forecast

Using degrees Celsius for public forecast. Weather courtesy of forecast.io.

Current aviation weather report (METAR) for Chiang Mai International Airport

2024/06/19 07:00 (retrieved 21 minutes ago)

VTCC 190700Z 22007KT 180V260 9999 SCT035 33/22 Q1005 NOSIG

Aviation forecast (TAF) for Chiang Mai International Airport

2024/06/19 06:36 (retrieved 45 minutes ago)

TAF VTCC 190500Z 1906/2012 20005KT 8000 SCT035 TEMPO 1906/1912 -TSRA FEW025CB SCT035 BECMG 1911/1913 28005KT TEMPO 1914/1918 -TSRA FEW025CB SCT035 BECMG 1917/1919 36005KT BECMG 2000/2002 19005KT